Time;durP1;ratioP1;P1;durP2;ratioP2;P2;SDS_P1;SDS_P2;PMS_P1;PMS_P2;Temp;Humidity;BMP_temperature;BMP_pressure;BME280_temperature;BME280_humidity;BME280_pressure;Samples;Min_cycle;Max_cycle;Signal;HPM_P1;HPM_P2
2021/12/16 00:29:04;;;;;;;13.50;7.97;;;;;;;1.18;84.34;100611.31;1744936;80;21137;-53
2021/12/16 00:31:19;;;;;;;;;;;;;;;1.13;84.25;100605.53;1738875;80;21066;-55
2021/12/16 00:36:01;;;;;;;13.43;8.27;;;;;;;1.09;84.30;100596.26;1744662;80;21473;-51
2021/12/16 00:38:28;;;;;;;14.87;7.57;;;;;;;1.06;84.32;100597.12;1746000;80;21113;-49
2021/12/16 00:40:55;;;;;;;14.77;8.70;;;;;;;1.05;84.36;100603.30;1740370;80;21924;-54
2021/12/16 00:43:31;;;;;;;13.87;8.60;;;;;;;1.07;84.38;100600.66;1739138;80;21072;-52
2021/12/16 00:55:48;;;;;;;21.63;12.20;;;;;;;1.14;84.56;100598.03;1833725;76;22093;-52
2021/12/16 00:58:15;;;;;;;19.23;11.00;;;;;;;1.13;84.60;100590.06;1829177;76;21241;-51
2021/12/16 01:00:49;;;;;;;18.40;11.00;;;;;;;1.13;84.60;100574.16;1828526;76;21021;-51
2021/12/16 01:03:24;;;;;;;20.73;11.70;;;;;;;1.14;84.59;100578.58;1820671;76;21467;-52
2021/12/16 01:06:02;;;;;;;20.70;10.77;;;;;;;1.14;84.61;100576.81;1816463;76;21152;-52
2021/12/16 01:51:52;;;;;;;23.73;12.23;;;;;;;1.17;84.63;100536.61;1822337;76;21077;-52
2021/12/16 01:56:47;;;;;;;22.43;11.63;;;;;;;1.13;84.66;100535.70;1756157;80;21036;-53
2021/12/16 01:59:06;;;;;;;24.77;13.83;;;;;;;1.11;84.75;100535.70;1762364;80;21304;-51
2021/12/16 02:01:34;;;;;;;23.53;13.13;;;;;;;1.15;84.90;100539.25;1757043;80;21140;-50
2021/12/16 02:04:16;;;;;;;21.97;11.80;;;;;;;1.19;84.92;100538.84;1739490;80;21698;-51
2021/12/16 02:07:06;;;;;;;28.13;13.20;;;;;;;1.20;84.86;100539.25;1752010;80;21021;-53
2021/12/16 02:09:24;;;;;;;28.47;13.87;;;;;;;1.20;84.81;100545.44;1756616;80;21567;-50
2021/12/16 02:11:56;;;;;;;35.13;16.17;;;;;;;1.20;84.87;100544.11;1754549;80;21166;-53
2021/12/16 02:28:14;;;;;;;32.83;14.07;;;;;;;1.16;85.09;100534.84;1768924;79;21644;-51
2021/12/16 02:33:49;;;;;;;31.53;15.10;;;;;;;1.21;85.03;100535.28;1771702;79;21126;-54
2021/12/16 02:36:14;;;;;;;32.63;16.53;;;;;;;1.22;85.06;100532.19;1773617;79;21285;-54
2021/12/16 02:38:32;;;;;;;33.67;16.17;;;;;;;1.23;85.08;100525.56;1771703;79;21056;-53
2021/12/16 02:40:58;;;;;;;34.33;16.47;;;;;;;1.23;85.04;100523.36;1762486;79;20910;-54
2021/12/16 02:48:43;;;;;;;33.83;14.75;;;;;;;1.23;85.04;100494.19;1768480;80;20961;-51
2021/12/16 02:51:19;;;;;;;32.60;14.97;;;;;;;1.23;85.05;100491.53;1737497;80;21122;-54
2021/12/16 02:53:50;;;;;;;31.65;14.28;;;;;;;1.24;85.17;100486.67;1766406;80;20894;-52
2021/12/16 02:56:16;;;;;;;33.13;16.10;;;;;;;1.26;85.14;100484.47;1757909;80;21333;-51
2021/12/16 02:58:47;;;;;;;34.33;16.27;;;;;;;1.28;85.14;100479.14;1768534;80;20982;-52
2021/12/16 03:01:20;;;;;;;32.93;15.30;;;;;;;1.28;85.17;100475.16;1764040;80;20955;-52
2021/12/16 03:03:46;;;;;;;31.90;16.07;;;;;;;1.27;85.17;100475.64;1762580;80;21827;-51
2021/12/16 03:06:14;;;;;;;34.07;15.83;;;;;;;1.27;85.19;100477.41;1763845;80;20869;-52
2021/12/16 03:08:41;;;;;;;30.00;14.17;;;;;;;1.27;85.18;100484.03;1764835;80;20902;-54
2021/12/16 03:11:20;;;;;;;32.73;14.00;;;;;;;1.27;85.14;100486.69;1763408;80;21466;-51
2021/12/16 03:13:43;;;;;;;25.20;12.73;;;;;;;1.29;85.16;100478.27;1766048;80;20934;-52
2021/12/16 03:16:20;;;;;;;29.60;13.33;;;;;;;1.30;85.10;100487.55;1762683;80;22245;-52
2021/12/16 03:18:52;;;;;;;25.17;11.87;;;;;;;1.30;85.18;100479.59;1768449;80;20930;-52
2021/12/16 03:21:20;;;;;;;26.20;13.73;;;;;;;1.35;85.14;100479.62;1763128;80;20911;-53
2021/12/16 03:24:25;;;;;;;30.43;13.87;;;;;;;1.35;85.09;100480.95;1761501;80;21017;-52
2021/12/16 03:26:59;;;;;;;31.23;16.10;;;;;;;1.35;85.11;100483.59;1765050;80;21044;-54
2021/12/16 03:34:39;;;;;;;32.03;13.67;;;;;;;1.35;85.02;100479.62;1764450;80;21018;-50
2021/12/16 03:37:17;;;;;;;30.23;13.37;;;;;;;1.33;84.99;100477.40;1763785;80;21128;-51
2021/12/16 03:39:55;;;;;;;26.97;12.93;;;;;;;1.31;84.88;100480.05;1762452;80;21029;-54
2021/12/16 03:42:29;;;;;;;30.97;13.63;;;;;;;1.31;84.93;100482.70;1758875;80;21085;-53
2021/12/16 03:45:05;;;;;;;28.90;12.43;;;;;;;1.31;85.03;100478.72;1762765;80;20952;-52
2021/12/16 03:47:41;;;;;;;30.72;14.15;;;;;;;1.35;85.14;100471.66;1757551;80;21025;-53
2021/12/16 03:50:13;;;;;;;33.70;14.80;;;;;;;1.36;85.12;100471.63;1750662;81;21497;-54
2021/12/16 03:52:39;;;;;;;35.50;16.27;;;;;;;1.37;85.09;100476.06;1750149;81;22476;-54
2021/12/16 03:55:07;;;;;;;31.97;15.17;;;;;;;1.38;85.01;100468.98;1747542;81;21203;-50
2021/12/16 03:57:34;;;;;;;33.00;14.87;;;;;;;1.35;84.95;100476.53;1727108;81;21132;-53
2021/12/16 04:00:01;;;;;;;29.50;14.47;;;;;;;1.33;84.95;100469.00;1746894;81;21030;-51
2021/12/16 04:02:46;;;;;;;28.60;14.63;;;;;;;1.32;84.88;100468.55;1757018;80;21118;-54
2021/12/16 04:05:15;;;;;;;32.00;16.23;;;;;;;1.31;84.92;100457.94;1762054;80;21056;-53
2021/12/16 04:07:43;;;;;;;36.00;15.67;;;;;;;1.33;84.90;100449.11;1771218;78;21540;-51
2021/12/16 04:10:35;;;;;;;35.33;15.93;;;;;;;1.32;84.91;100439.82;1774805;78;21013;-51
2021/12/16 04:13:05;;;;;;;35.33;16.83;;;;;;;1.32;85.13;100438.50;1743609;79;21382;-53
2021/12/16 04:15:32;;;;;;;38.00;17.33;;;;;;;1.33;85.09;100450.44;1750413;81;21172;-52
2021/12/16 04:17:59;;;;;;;38.70;17.70;;;;;;;1.34;85.00;100450.00;1748528;80;21229;-53
2021/12/16 04:20:27;;;;;;;37.93;17.80;;;;;;;1.33;84.95;100454.86;1748582;81;21409;-50
2021/12/16 04:22:54;;;;;;;40.57;17.00;;;;;;;1.31;84.96;100456.17;1732719;81;21041;-50
2021/12/16 04:25:30;;;;;;;38.77;16.70;;;;;;;1.31;84.95;100446.89;1751819;81;21085;-54
2021/12/16 04:28:00;;;;;;;39.07;17.70;;;;;;;1.31;84.91;100452.20;1747012;80;21060;-52
2021/12/16 04:30:27;;;;;;;38.53;17.00;;;;;;;1.32;84.96;100442.47;1751166;80;21033;-54
2021/12/16 04:32:54;;;;;;;34.27;17.10;;;;;;;1.32;84.97;100440.70;1756383;79;21103;-52
2021/12/16 04:35:21;;;;;;;39.13;16.47;;;;;;;1.33;85.06;100435.84;1740660;80;21114;-51
2021/12/16 04:37:49;;;;;;;37.97;17.77;;;;;;;1.36;85.11;100424.36;1751493;80;21075;-52
2021/12/16 04:40:17;;;;;;;39.70;18.00;;;;;;;1.37;85.11;100432.29;1755187;79;21040;-51
2021/12/16 04:42:47;;;;;;;39.00;17.63;;;;;;;1.36;85.06;100426.54;1766881;78;20991;-53
2021/12/16 04:45:16;;;;;;;34.30;14.80;;;;;;;1.35;85.00;100418.61;1767676;78;23320;-51
2021/12/16 04:47:44;;;;;;;31.90;14.83;;;;;;;1.34;84.93;100407.55;1749905;80;21022;-50
2021/12/16 04:50:10;;;;;;;33.87;15.27;;;;;;;1.32;84.83;100410.20;1765818;79;21569;-51
2021/12/16 04:52:39;;;;;;;28.13;14.23;;;;;;;1.31;84.90;100407.55;1757737;80;21070;-53
2021/12/16 04:55:07;;;;;;;29.57;12.90;;;;;;;1.32;84.98;100411.53;1760098;80;21293;-53
2021/12/16 04:57:34;;;;;;;29.50;13.83;;;;;;;1.33;84.94;100421.26;1765473;80;21136;-51
2021/12/16 05:00:08;;;;;;;32.13;13.87;;;;;;;1.35;85.03;100415.95;1760553;80;20983;-54
2021/12/16 05:02:36;;;;;;;37.73;15.75;;;;;;;1.36;85.02;100410.63;1757999;80;21448;-52
2021/12/16 05:05:22;;;;;;;35.87;15.30;;;;;;;1.36;84.93;100414.60;1754182;79;22013;-52
2021/12/16 05:07:50;;;;;;;41.37;16.00;;;;;;;1.35;84.83;100414.63;1788792;78;21306;-52
2021/12/16 05:10:19;;;;;;;36.27;15.77;;;;;;;1.33;84.79;100415.95;1758739;80;21096;-52
2021/12/16 05:12:52;;;;;;;30.80;12.80;;;;;;;1.32;84.73;100420.81;1759286;80;21555;-53
2021/12/16 05:15:22;;;;;;;34.97;15.37;;;;;;;1.34;84.72;100410.20;1757140;80;21653;-51
2021/12/16 05:17:53;;;;;;;36.40;15.40;;;;;;;1.32;84.70;100411.97;1753102;80;21080;-52
2021/12/16 05:20:23;;;;;;;33.80;14.03;;;;;;;1.34;84.69;100403.58;1765284;80;20932;-52
2021/12/16 05:28:24;;;;;;;33.17;15.03;;;;;;;1.28;84.65;100413.72;1741315;80;21423;-51
2021/12/16 05:30:51;;;;;;;38.87;17.40;;;;;;;1.25;84.64;100419.05;1793156;77;21047;-54
2021/12/16 05:33:18;;;;;;;33.50;15.13;;;;;;;1.23;84.62;100416.83;1769571;80;21556;-50
2021/12/16 05:35:45;;;;;;;32.53;13.87;;;;;;;1.23;84.61;100419.92;1793125;78;21389;-52
2021/12/16 05:38:11;;;;;;;32.53;13.63;;;;;;;1.23;84.62;100427.88;1762885;80;20918;-55
2021/12/16 05:40:39;;;;;;;29.50;14.80;;;;;;;1.25;84.67;100424.80;1768914;80;20964;-51
2021/12/16 05:43:14;;;;;;;32.97;14.57;;;;;;;1.26;84.65;100430.11;1764870;80;20899;-52
2021/12/16 05:45:41;;;;;;;36.43;14.53;;;;;;;1.28;84.70;100428.75;1767743;80;20956;-54
2021/12/16 05:48:10;;;;;;;33.47;16.57;;;;;;;1.28;84.64;100428.31;1753443;80;21126;-53
2021/12/16 05:50:42;;;;;;;33.50;15.47;;;;;;;1.28;84.59;100423.01;1738894;81;21402;-53
2021/12/16 05:53:09;;;;;;;37.83;18.37;;;;;;;1.26;84.54;100422.59;1704747;81;21389;-52
2021/12/16 05:55:35;;;;;;;38.57;16.70;;;;;;;1.22;84.50;100416.83;1707671;81;20942;-52
2021/12/16 05:58:14;;;;;;;35.63;16.20;;;;;;;1.20;84.48;100418.15;1736614;81;20938;-51
2021/12/16 06:00:40;;;;;;;29.67;14.17;;;;;;;1.21;84.58;100415.94;1694848;81;21517;-51
2021/12/16 06:03:09;;;;;;;31.13;15.00;;;;;;;1.22;84.65;100412.41;1714976;81;20958;-51
2021/12/16 06:05:37;;;;;;;32.60;15.70;;;;;;;1.23;84.70;100410.20;1719562;81;20962;-53
2021/12/16 06:08:04;;;;;;;26.50;14.43;;;;;;;1.26;84.68;100415.96;1733863;81;20880;-51
2021/12/16 06:13:04;;;;;;;29.63;15.57;;;;;;;1.31;84.62;100426.11;1739639;81;21773;-53
2021/12/16 06:15:46;;;;;;;31.43;14.73;;;;;;;1.28;84.47;100421.69;1740079;81;20937;-55
2021/12/16 06:26:33;;;;;;;33.00;15.10;;;;;;;1.29;84.49;100411.52;1734361;81;24820;-52
2021/12/16 06:28:55;;;;;;;28.37;14.77;;;;;;;1.31;84.51;100417.72;1739355;81;21137;-52
2021/12/16 06:31:21;;;;;;;33.87;15.30;;;;;;;1.36;84.54;100409.77;1732913;81;21522;-54
2021/12/16 06:33:48;;;;;;;28.17;14.67;;;;;;;1.35;84.51;100404.91;1735641;81;21725;-53
2021/12/16 06:36:15;;;;;;;30.83;13.60;;;;;;;1.36;84.46;100389.41;1746634;79;21063;-54
2021/12/16 06:38:41;;;;;;;29.83;12.90;;;;;;;1.37;84.41;100378.36;1765206;79;21140;-52
2021/12/16 06:41:19;;;;;;;29.27;12.40;;;;;;;1.36;84.32;100364.68;1736065;81;21061;-53
2021/12/16 06:43:53;;;;;;;22.57;11.47;;;;;;;1.37;84.33;100379.23;1762823;78;20989;-51
2021/12/16 06:46:20;;;;;;;21.63;10.00;;;;;;;1.38;84.33;100374.38;1765843;78;21055;-52
2021/12/16 06:48:55;;;;;;;22.03;11.03;;;;;;;1.41;84.37;100367.76;1765897;78;21077;-51
2021/12/16 06:51:27;;;;;;;23.33;11.50;;;;;;;1.43;84.35;100364.66;1768211;79;21083;-51
2021/12/16 06:53:51;;;;;;;28.10;12.50;;;;;;;1.47;84.39;100362.87;1774316;80;21454;-51
2021/12/16 06:56:19;;;;;;;27.73;14.37;;;;;;;1.49;84.35;100362.43;1769938;79;21031;-51
2021/12/16 07:01:15;;;;;;;28.43;12.07;;;;;;;1.52;84.23;100370.40;1766689;80;21134;-54
2021/12/16 07:03:49;;;;;;;26.87;13.27;;;;;;;1.54;84.14;100373.91;1759854;80;21133;-54
2021/12/16 07:06:24;;;;;;;23.20;11.17;;;;;;;1.53;84.10;100365.53;1764478;80;21492;-55
2021/12/16 07:08:53;;;;;;;23.30;11.33;;;;;;;1.55;84.06;100368.16;1763244;80;21815;-54
2021/12/16 07:11:20;;;;;;;25.50;12.07;;;;;;;1.57;84.12;100366.39;1767119;80;21022;-52
2021/12/16 07:13:57;;;;;;;28.60;13.20;;;;;;;1.59;84.10;100355.34;1762098;79;21047;-54
2021/12/16 07:16:17;;;;;;;24.80;12.50;;;;;;;1.59;84.03;100352.24;1763114;80;21238;-51
2021/12/16 07:18:43;;;;;;;26.50;12.27;;;;;;;1.61;83.98;100350.92;1763908;80;21618;-53
2021/12/16 07:21:09;;;;;;;24.83;12.67;;;;;;;1.60;83.99;100353.13;1764719;80;21541;-54
2021/12/16 07:23:36;;;;;;;26.77;12.73;;;;;;;1.60;83.97;100351.80;1763719;79;21379;-54
2021/12/16 07:26:02;;;;;;;28.97;12.73;;;;;;;1.61;83.95;100348.27;1769575;80;21041;-54
2021/12/16 07:28:29;;;;;;;25.70;12.93;;;;;;;1.62;83.88;100347.34;1765129;80;21491;-52
2021/12/16 07:30:55;;;;;;;24.93;12.87;;;;;;;1.63;83.90;100348.68;1766773;80;21084;-53
2021/12/16 07:33:22;;;;;;;24.63;11.87;;;;;;;1.64;83.94;100344.26;1765194;80;21021;-52
2021/12/16 07:35:48;;;;;;;25.13;12.40;;;;;;;1.66;83.96;100346.47;1769031;80;21312;-54
2021/12/16 07:38:16;;;;;;;23.97;13.07;;;;;;;1.66;83.91;100337.18;1769944;80;20978;-55
2021/12/16 07:40:44;;;;;;;23.87;12.83;;;;;;;1.67;83.93;100337.19;1766803;80;21565;-54
2021/12/16 07:43:19;;;;;;;25.87;13.77;;;;;;;1.70;83.93;100336.30;1769432;80;21401;-54
2021/12/16 07:45:44;;;;;;;27.03;13.03;;;;;;;1.69;83.82;100331.87;1770141;80;21026;-54
2021/12/16 07:48:12;;;;;;;22.67;11.33;;;;;;;1.68;83.82;100323.47;1770721;80;21976;-55
2021/12/16 07:50:40;;;;;;;25.63;12.03;;;;;;;1.68;83.80;100319.05;1747500;80;20962;-53
2021/12/16 07:53:06;;;;;;;23.83;12.00;;;;;;;1.67;83.75;100314.63;1763469;80;21171;-54
2021/12/16 07:55:33;;;;;;;23.83;11.87;;;;;;;1.68;83.88;100318.16;1766016;80;21682;-54
2021/12/16 07:57:59;;;;;;;22.97;11.07;;;;;;;1.70;83.98;100324.36;1768857;80;21109;-54
2021/12/16 08:00:29;;;;;;;19.27;10.50;;;;;;;1.72;83.98;100315.92;1769599;80;21774;-54
2021/12/16 08:02:55;;;;;;;21.17;11.70;;;;;;;1.72;83.96;100307.95;1765163;80;21100;-55
2021/12/16 08:05:24;;;;;;;29.03;13.43;;;;;;;1.72;83.97;100305.30;1764007;80;21533;-54
2021/12/16 08:07:50;;;;;;;25.10;13.20;;;;;;;1.72;83.97;100311.50;1764868;80;21475;-55
2021/12/16 08:10:20;;;;;;;23.50;12.30;;;;;;;1.73;83.97;100316.36;1768722;80;21057;-53
2021/12/16 08:12:47;;;;;;;27.80;12.90;;;;;;;1.72;84.00;100314.16;1766086;80;21037;-55
2021/12/16 08:15:15;;;;;;;25.83;13.00;;;;;;;1.74;83.97;100315.48;1762747;80;21033;-55
2021/12/16 08:17:43;;;;;;;24.33;13.20;;;;;;;1.76;84.01;100313.71;1768624;80;21130;-53
2021/12/16 08:20:11;;;;;;;26.00;13.47;;;;;;;1.78;84.06;100314.59;1770333;80;20922;-53
2021/12/16 08:22:37;;;;;;;29.70;14.93;;;;;;;1.80;84.14;100308.81;1766059;80;21420;-55
2021/12/16 08:25:05;;;;;;;28.00;16.43;;;;;;;1.81;84.09;100308.81;1794985;78;22014;-55
2021/12/16 08:27:33;;;;;;;32.00;17.30;;;;;;;1.80;84.02;100312.79;1768036;80;20959;-53
2021/12/16 08:30:00;;;;;;;28.40;14.83;;;;;;;1.80;84.04;100311.02;1769555;80;21085;-55
2021/12/16 08:32:26;;;;;;;32.60;15.80;;;;;;;1.81;84.04;100306.59;1769405;80;20907;-54
2021/12/16 08:34:53;;;;;;;29.33;14.60;;;;;;;1.82;84.06;100303.94;1768496;80;21501;-55
2021/12/16 08:37:24;;;;;;;22.77;12.77;;;;;;;1.83;84.09;100296.87;1770751;80;21021;-55
2021/12/16 08:39:47;;;;;;;26.23;13.33;;;;;;;1.85;84.12;100301.73;1771123;80;21322;-54
2021/12/16 08:42:14;;;;;;;27.40;14.50;;;;;;;1.87;84.11;100298.63;1769283;80;21423;-53
2021/12/16 08:44:41;;;;;;;28.30;14.83;;;;;;;1.87;84.17;100299.48;1770523;80;20942;-56
2021/12/16 08:47:11;;;;;;;26.07;12.93;;;;;;;1.89;84.21;100299.48;1772454;80;20954;-56
2021/12/16 08:49:37;;;;;;;26.87;12.87;;;;;;;1.89;84.15;100283.11;1755131;80;21057;-56
2021/12/16 08:52:12;;;;;;;27.33;12.73;;;;;;;1.89;84.10;100288.86;1746462;80;20962;-54
2021/12/16 08:54:38;;;;;;;19.82;11.85;;;;;;;1.88;84.15;100274.70;1748484;81;21448;-53
2021/12/16 08:57:05;;;;;;;23.70;14.80;;;;;;;1.91;84.22;100279.12;1742946;80;20974;-53
2021/12/16 08:59:31;;;;;;;19.30;10.87;;;;;;;1.94;84.24;100271.16;1751999;81;21377;-54
2021/12/16 09:01:58;;;;;;;20.50;10.23;;;;;;;1.99;84.34;100270.67;1750741;81;21587;-55
2021/12/16 09:04:25;;;;;;;22.50;11.67;;;;;;;2.02;84.40;100258.72;1747851;81;20920;-54
2021/12/16 09:06:57;;;;;;;22.10;11.73;;;;;;;2.06;84.41;100252.48;1748063;81;21079;-55
2021/12/16 09:09:24;;;;;;;18.87;11.07;;;;;;;2.09;84.35;100245.84;1748874;81;21007;-54
2021/12/16 09:12:11;;;;;;;14.80;9.13;;;;;;;2.12;84.36;100244.95;1748234;81;20879;-55
2021/12/16 09:14:35;;;;;;;20.20;11.43;;;;;;;2.12;84.29;100236.54;1750439;81;20925;-53
2021/12/16 09:17:04;;;;;;;21.63;12.43;;;;;;;2.13;84.27;100240.05;1750183;80;21354;-54
2021/12/16 09:19:30;;;;;;;22.93;12.00;;;;;;;2.13;84.29;100232.08;1747043;81;21357;-55
2021/12/16 09:21:57;;;;;;;22.23;12.00;;;;;;;2.15;84.33;100232.52;1748830;81;21513;-55
2021/12/16 09:24:23;;;;;;;20.17;12.60;;;;;;;2.18;84.47;100227.19;1745388;81;21072;-54
2021/12/16 09:26:49;;;;;;;23.73;11.67;;;;;;;2.21;84.44;100223.16;1747090;81;21062;-55
2021/12/16 09:29:16;;;;;;;26.50;13.57;;;;;;;2.21;84.38;100219.19;1747839;81;21513;-53
2021/12/16 09:31:42;;;;;;;23.07;12.70;;;;;;;2.22;84.42;100213.42;1746989;81;22360;-57
2021/12/16 09:34:09;;;;;;;24.30;15.33;;;;;;;2.23;84.44;100207.23;1747757;81;20993;-55
2021/12/16 09:36:38;;;;;;;29.80;16.93;;;;;;;2.23;84.41;100206.78;1744657;80;21348;-54
2021/12/16 09:39:11;;;;;;;32.00;18.27;;;;;;;2.24;84.41;100204.56;1746628;81;21080;-56
2021/12/16 09:41:37;;;;;;;30.53;18.20;;;;;;;2.25;84.43;100206.33;1780100;79;21052;-57
2021/12/16 09:44:04;;;;;;;27.33;15.83;;;;;;;2.25;84.49;100202.79;1758460;80;23327;-56
2021/12/16 09:46:30;;;;;;;25.07;15.13;;;;;;;2.26;84.57;100203.23;1754813;80;20952;-56
2021/12/16 09:48:57;;;;;;;26.03;14.47;;;;;;;2.30;84.62;100202.77;1751953;80;21064;-57
2021/12/16 09:51:26;;;;;;;22.17;14.13;;;;;;;2.32;84.65;100190.33;1755158;80;21115;-57
2021/12/16 09:53:57;;;;;;;21.53;12.67;;;;;;;2.34;84.68;100190.77;1749308;80;21124;-56
2021/12/16 09:56:24;;;;;;;22.67;13.30;;;;;;;2.37;84.68;100192.53;1753362;80;21100;-57
2021/12/16 09:58:51;;;;;;;25.70;12.67;;;;;;;2.35;84.60;100187.22;1750906;80;21120;-55
2021/12/16 10:01:18;;;;;;;18.73;10.93;;;;;;;2.34;84.60;100174.83;1764992;80;21039;-55
2021/12/16 10:03:48;;;;;;;20.13;12.17;;;;;;;2.34;84.62;100173.95;1739755;80;21060;-54
2021/12/16 10:06:15;;;;;;;20.40;11.83;;;;;;;2.37;84.69;100164.63;1748164;81;20966;-55
2021/12/16 10:08:43;;;;;;;19.77;12.40;;;;;;;2.38;84.69;100147.36;1742612;81;20986;-57
2021/12/16 10:11:10;;;;;;;19.93;11.57;;;;;;;2.42;84.77;100152.17;1758443;80;21128;-58
2021/12/16 10:13:46;;;;;;;20.73;12.47;;;;;;;2.44;84.83;100149.95;1756232;79;21080;-56
2021/12/16 10:18:36;;;;;;;19.37;11.27;;;;;;;2.48;84.86;100150.34;1770602;80;21041;-56
2021/12/16 10:21:08;;;;;;;19.63;11.80;;;;;;;2.47;84.87;100150.34;1744672;80;21219;-56
2021/12/16 10:23:39;;;;;;;18.17;10.73;;;;;;;2.45;84.88;100138.87;1751547;80;21085;-55
2021/12/16 10:26:17;;;;;;;23.53;11.37;;;;;;;2.46;84.93;100138.87;1751902;80;21065;-56
2021/12/16 10:28:47;;;;;;;16.67;10.50;;;;;;;2.47;85.01;100129.97;1753311;80;21029;-54
2021/12/16 10:31:18;;;;;;;18.23;10.87;;;;;;;2.50;85.10;100128.63;1753688;80;20934;-56
2021/12/16 10:34:00;;;;;;;16.17;10.70;;;;;;;2.54;85.19;100122.84;1749514;80;21073;-55
2021/12/16 10:36:32;;;;;;;17.83;11.73;;;;;;;2.56;85.20;100121.91;1752206;80;21100;-58
2021/12/16 10:39:16;;;;;;;15.53;10.30;;;;;;;2.58;85.27;100121.45;1754667;80;21027;-57
2021/12/16 10:41:56;;;;;;;19.62;10.95;;;;;;;2.61;85.27;100116.13;1751223;80;21116;-55
2021/12/16 10:44:28;;;;;;;14.67;8.60;;;;;;;2.60;85.22;100114.36;1751808;80;21080;-54
2021/12/16 10:47:05;;;;;;;18.90;10.43;;;;;;;2.62;85.28;100113.02;1753889;80;21878;-57
2021/12/16 10:49:42;;;;;;;18.97;9.57;;;;;;;2.63;85.32;100110.80;1752839;80;21073;-56
2021/12/16 10:52:14;;;;;;;16.67;9.13;;;;;;;2.63;85.40;100109.02;1746462;81;21033;-55
2021/12/16 10:54:43;;;;;;;14.97;8.97;;;;;;;2.66;85.53;100103.65;1746061;81;21065;-55
2021/12/16 10:57:18;;;;;;;15.03;9.33;;;;;;;2.71;85.62;100095.64;1742761;81;21327;-57
2021/12/16 10:59:57;;;;;;;13.93;8.73;;;;;;;2.76;85.66;100092.92;1746369;81;21051;-58
2021/12/16 11:02:30;;;;;;;18.50;9.80;;;;;;;2.77;85.62;100086.27;1745889;81;21069;-56
2021/12/16 11:05:12;;;;;;;17.00;9.40;;;;;;;2.81;85.68;100082.65;1746289;81;21049;-57
2021/12/16 11:07:42;;;;;;;14.87;8.50;;;;;;;2.85;85.66;100084.39;1743171;81;22421;-56
2021/12/16 11:10:16;;;;;;;16.03;9.10;;;;;;;2.89;85.70;100078.60;1744768;81;21156;-54
2021/12/16 11:12:49;;;;;;;13.65;10.43;;;;;;;2.90;85.79;100070.58;1745629;81;21427;-55
2021/12/16 11:15:29;;;;;;;16.67;10.40;;;;;;;2.93;85.77;100079.86;1750684;81;20970;-54
2021/12/16 11:18:07;;;;;;;20.33;12.47;;;;;;;2.94;85.81;100070.11;1718188;81;21674;-58
2021/12/16 11:20:57;;;;;;;17.47;11.50;;;;;;;2.95;85.81;100067.88;1732560;81;20895;-55
2021/12/16 11:23:34;;;;;;;21.00;12.27;;;;;;;2.94;85.87;100069.66;1753442;81;21069;-57
2021/12/16 11:26:16;;;;;;;19.60;11.47;;;;;;;2.94;85.81;100063.02;1723812;82;21737;-58
2021/12/16 11:28:47;;;;;;;18.40;10.80;;;;;;;2.95;85.90;100062.56;1723874;82;21003;-57
2021/12/16 11:31:22;;;;;;;15.53;9.83;;;;;;;2.98;85.98;100060.73;1750753;81;20871;-56
2021/12/16 11:33:55;;;;;;;17.23;11.10;;;;;;;3.02;86.13;100054.48;1731038;82;22203;-55
2021/12/16 11:36:25;;;;;;;17.50;10.77;;;;;;;3.11;86.17;100055.27;1736916;82;20986;-58
2021/12/16 11:39:06;;;;;;;17.87;11.03;;;;;;;3.16;86.27;100050.30;1736922;82;21476;-58
2021/12/16 11:41:36;;;;;;;17.23;10.60;;;;;;;3.21;86.18;100045.81;1736505;82;21429;-57
2021/12/16 11:44:25;;;;;;;20.37;11.57;;;;;;;3.26;86.19;100055.05;1735985;82;20930;-56
2021/12/16 11:47:02;;;;;;;15.93;10.87;;;;;;;3.29;86.17;100048.37;1711679;82;21002;-55
2021/12/16 11:49:41;;;;;;;21.07;11.90;;;;;;;3.27;86.05;100039.52;1741303;80;21092;-58
2021/12/16 11:52:16;;;;;;;16.57;11.17;;;;;;;3.25;86.00;100044.86;1772776;80;21435;-56
2021/12/16 11:54:54;;;;;;;18.25;11.43;;;;;;;3.24;86.05;100040.43;1768899;80;21677;-55
2021/12/16 11:57:42;;;;;;;16.03;9.23;;;;;;;3.24;86.10;100034.23;1773432;80;21356;-57
2021/12/16 12:00:22;;;;;;;17.13;10.20;;;;;;;3.26;86.24;100039.09;1771451;80;21526;-55
2021/12/16 12:03:10;;;;;;;14.83;9.83;;;;;;;3.31;86.28;100033.27;1773637;80;20946;-56
2021/12/16 12:05:42;;;;;;;20.03;12.33;;;;;;;3.34;86.28;100027.88;1799464;79;21415;-56
2021/12/16 12:08:16;;;;;;;22.33;12.63;;;;;;;3.34;86.25;100027.43;1774424;80;21310;-56
2021/12/16 12:10:51;;;;;;;24.33;14.07;;;;;;;3.35;86.18;100019.00;1770730;80;21423;-56
2021/12/16 12:13:24;;;;;;;20.83;13.77;;;;;;;3.33;86.17;100016.36;1769447;80;20956;-57
2021/12/16 12:16:03;;;;;;;20.07;12.73;;;;;;;3.32;86.14;100012.38;1768130;80;21483;-58
2021/12/16 12:18:45;;;;;;;23.00;12.77;;;;;;;3.31;86.12;100014.64;1768387;80;21595;-57
2021/12/16 12:21:38;;;;;;;21.17;12.13;;;;;;;3.30;86.20;100012.88;1769897;80;21381;-57
2021/12/16 12:24:15;;;;;;;22.47;12.50;;;;;;;3.29;86.31;100005.34;1771412;80;21077;-58
2021/12/16 12:27:04;;;;;;;20.87;13.40;;;;;;;3.32;86.36;100005.73;1771838;80;21085;-55
2021/12/16 12:29:39;;;;;;;26.77;14.70;;;;;;;3.33;86.33;100002.17;1770050;80;21080;-58
2021/12/16 12:32:22;;;;;;;25.00;13.77;;;;;;;3.36;86.48;100000.80;1771640;80;21825;-57
2021/12/16 12:34:54;;;;;;;25.80;14.40;;;;;;;3.36;86.49;99992.38;1767533;80;21113;-55
2021/12/16 12:37:23;;;;;;;23.63;14.33;;;;;;;3.36;86.35;99996.81;1770268;80;21423;-58
2021/12/16 12:39:53;;;;;;;29.17;15.53;;;;;;;3.35;86.34;100000.37;1769720;80;21140;-58
2021/12/16 12:42:20;;;;;;;30.07;16.73;;;;;;;3.33;86.35;99986.20;1772037;80;21046;-56
2021/12/16 12:44:47;;;;;;;31.23;16.70;;;;;;;3.33;86.39;99980.89;1770040;80;22221;-56
2021/12/16 12:47:20;;;;;;;30.87;17.70;;;;;;;3.33;86.46;99975.56;1771443;80;21040;-56
2021/12/16 12:49:47;;;;;;;28.30;15.87;;;;;;;3.33;86.56;99973.78;1769187;80;21115;-58
2021/12/16 12:52:20;;;;;;;29.13;16.70;;;;;;;3.34;86.57;99968.89;1769228;80;20965;-59
2021/12/16 12:55:13;;;;;;;29.77;16.93;;;;;;;3.36;86.62;99963.55;1769613;80;21100;-57
2021/12/16 12:57:41;;;;;;;29.40;17.07;;;;;;;3.38;86.62;99963.09;1771706;80;21116;-56
2021/12/16 13:00:31;;;;;;;35.33;19.10;;;;;;;3.38;86.62;99979.94;1768465;80;21097;-56
2021/12/16 13:05:14;;;;;;;34.00;17.80;;;;;;;3.38;86.60;99967.08;1776294;78;22933;-56
2021/12/16 13:07:44;;;;;;;34.70;18.60;;;;;;;3.32;86.61;99966.70;1737630;80;20965;-56
2021/12/16 13:10:18;;;;;;;32.50;19.83;;;;;;;3.32;86.67;99965.82;1737811;80;21016;-56
2021/12/16 13:13:42;;;;;;;35.05;19.35;;;;;;;3.33;86.80;99959.59;1737634;80;20934;-56
2021/12/16 13:15:47;;;;;;;34.33;18.03;;;;;;;3.35;86.88;99960.46;1728884;80;21099;-54
2021/12/16 13:26:47;;;;;;;38.60;21.30;;;;;;;3.38;87.00;99974.61;1739290;80;21466;-57
2021/12/16 13:29:53;;;;;;;40.27;20.53;;;;;;;3.33;86.96;99983.09;1732986;80;21598;-56
2021/12/16 13:32:24;;;;;;;41.60;20.33;;;;;;;3.31;87.02;99993.36;1737310;80;21097;-59
2021/12/16 13:35:47;;;;;;;36.63;19.07;;;;;;;3.27;87.05;99978.33;1739524;80;21472;-56
2021/12/16 13:37:42;;;;;;;38.30;18.83;;;;;;;3.26;87.15;99977.89;1729523;80;21113;-56
2021/12/16 13:40:28;;;;;;;34.05;18.07;;;;;;;3.28;87.28;99979.64;1735926;80;21663;-57
2021/12/16 13:43:09;;;;;;;38.87;19.50;;;;;;;3.32;87.36;99969.36;1739180;80;20938;-56
2021/12/16 13:45:45;;;;;;;39.97;19.93;;;;;;;3.38;87.33;99977.72;1741196;80;20919;-58
2021/12/16 13:48:46;;;;;;;36.30;18.47;;;;;;;3.40;87.39;99973.27;1737514;80;21077;-59
2021/12/16 14:00:36;;;;;;;39.05;18.80;;;;;;;3.36;87.39;99960.45;1742157;80;21054;-55
2021/12/16 14:05:28;;;;;;;38.13;20.03;;;;;;;3.42;87.55;99961.67;1737148;80;22049;-57
2021/12/16 14:08:01;;;;;;;36.60;19.50;;;;;;;3.46;87.69;99954.98;1734693;80;21095;-57
2021/12/16 14:10:46;;;;;;;42.40;22.07;;;;;;;3.45;87.66;99961.20;1734193;80;21077;-56
2021/12/16 14:16:56;;;;;;;41.17;18.60;;;;;;;3.43;87.63;99958.11;1736077;80;21671;-57
2021/12/16 14:42:08;;;;;;;24.43;13.97;;;;;;;3.56;87.86;99968.12;1745851;80;21103;-57